Latest Coastal Weather Observations for Hogan Island

IDT60701

Issued at 3:03 pm EDT Sunday 11 December 2016 (issued every 10 minutes, with the page automatically refreshed every 10 minutes)

About coastal observations | Map of coastal stations | Coastal observations for TAS | Marine services | Other Formats
Station Details ID: 200838 Name: HOGAN ISLAND Lat: -39.22 Lon: 146.98 Height: 116.0 m
Data from the previous 72 hours. | See also: Recent months at Hogan Island
Date/Time
EDT
Temp
°C
Wind Pressure Rain since
9am
mm
Weather Cloud Vis
km
Sea
Height
m
Swell
Dir  Spd
kts
Gust
kts
hPa Trend Height
m
Period
s
Dir
11/03:00pm 17.6 SW 10 11 1023.3 - 0.0 - - - - - - -
11/02:30pm 18.0 SW 10 13 1023.8 - 0.0 - - - - - - -
11/02:00pm 17.9 SW 9 11 1023.9 - 0.0 - - - - - - -
11/01:30pm 17.0 WSW 10 12 1024.2 - 0.0 - - - - - - -
11/01:00pm 17.4 SW 10 12 1024.3 - 0.0 - - - - - - -
11/12:30pm 17.3 WSW 10 12 1024.3 - 0.0 - - - - - - -
11/12:00pm 16.5 WSW 11 13 1024.3 - 0.0 - - - - - - -
11/11:30am 17.1 WSW 10 13 1024.5 - 0.0 - - - - - - -
11/11:00am 16.7 WSW 10 12 1024.4 - 0.0 - - - - - - -
11/10:30am 16.8 WSW 11 12 1024.4 - 0.0 - - - - - - -
11/10:00am 16.0 WSW 12 14 1024.3 - 0.0 - - - - - - -
11/09:30am 15.8 WSW 12 14 1024.4 - 0.0 - - - - - - -
11/09:00am 15.1 WSW 12 14 1024.0 - 0.0 - - - - - - -
11/08:30am 14.6 WSW 12 13 1023.6 - 0.0 - - - - - - -
11/08:00am 13.8 WSW 12 14 1023.3 - 0.0 - - - - - - -
11/07:30am 13.1 SW 13 16 1023.1 - 0.0 - - - - - - -
11/07:00am 12.3 SW 16 19 1022.9 - 0.0 - - - - - - -
11/06:30am 12.5 W 13 15 1022.7 - 0.0 - - - - - - -
11/06:00am 12.0 W 16 18 1022.0 - 0.0 - - - - - - -
11/05:30am 12.3 W 17 20 1021.9 - 0.0 - - - - - - -
11/05:00am 12.1 WSW 19 21 1021.8 - 0.0 - - - - - - -
11/04:30am 11.9 WSW 17 19 1021.7 - 0.0 - - - - - - -
11/04:00am 11.9 WSW 17 19 1021.6 - 0.0 - - - - - - -
11/03:30am 12.2 WSW 19 22 1021.5 - 0.0 - - - - - - -
11/03:00am 11.9 WSW 18 21 1021.3 - 0.0 - - - - - - -
11/02:30am 12.3 WSW 21 24 1021.7 - 0.0 - - - - - - -
11/02:00am 12.2 WSW 19 22 1021.7 - 0.0 - - - - - - -
11/01:30am 12.5 WSW 19 23 1022.0 - 0.0 - - - - - - -
11/01:00am 12.1 WSW 20 28 1022.1 - 0.0 - - - - - - -
11/12:30am 12.2 WSW 22 26 1022.2 - 0.0 - - - - - - -
11/12:00am 12.3 WSW 23 27 1022.0 - 0.0 - - - - - - -
 
Date/Time
EDT
Temp
°C
Wind Pressure Rain since
9am
mm
Weather Cloud Vis
km
Sea
Height
m
Swell
Dir  Spd
kts
Gust
kts
hPa Trend Height
m
Period
s
Dir
10/11:30pm 12.2 WSW 23 27 1022.1 - 0.0 - - - - - - -
10/11:00pm 12.2 WSW 23 26 1022.0 - 0.0 - - - - - - -
10/10:30pm 12.0 W 25 29 1022.0 - 0.0 - - - - - - -
10/10:00pm 12.3 W 22 26 1022.0 - 0.0 - - - - - - -
10/09:30pm 12.3 W 22 26 1021.9 - 0.0 - - - - - - -
10/09:00pm 12.0 W 23 26 1021.5 - 0.0 - - - - - - -
10/08:30pm 12.1 W 25 29 1021.6 - 0.0 - - - - - - -
10/08:00pm 13.0 W 25 29 1021.2 - 0.0 - - - - - - -
10/07:30pm 12.9 W 27 31 1020.9 - 0.0 - - - - - - -
10/07:00pm 13.3 W 25 30 1020.7 - 0.0 - - - - - - -
10/06:30pm 13.6 W 26 31 1020.5 - 0.0 - - - - - - -
10/06:00pm 13.7 W 25 29 1020.2 - 0.0 - - - - - - -
10/05:30pm 14.0 W 24 30 1020.4 - 0.0 - - - - - - -
10/05:00pm 15.8 W 26 31 1020.7 - 0.0 - - - - - - -
10/04:30pm 15.1 W 27 31 1020.7 - 0.0 - - - - - - -
10/04:00pm 15.4 W 27 31 1020.8 - 0.0 - - - - - - -
10/03:30pm 14.8 W 26 30 1021.0 - 0.0 - - - - - - -
10/03:00pm 13.6 W 26 30 1021.2 - 0.0 - - - - - - -
10/02:30pm 14.5 W 26 29 1021.5 - 0.0 - - - - - - -
10/02:00pm 15.3 W 25 28 1021.7 - 0.0 - - - - - - -
10/01:30pm 16.5 W 24 27 1021.8 - 0.0 - - - - - - -
10/01:00pm 15.8 W 24 26 1021.9 - 0.0 - - - - - - -
10/12:30pm 15.3 W 23 26 1021.9 - 0.0 - - - - - - -
10/12:00pm 15.1 W 23 25 1021.8 - 0.0 - - - - - - -
10/11:30am 14.5 W 21 25 1022.1 - 0.0 - - - - - - -
10/11:00am 15.9 W 20 25 1022.2 - 0.0 - - - - - - -
10/10:30am 16.0 W 20 23 1022.2 - 0.0 - - - - - - -
10/10:00am 14.0 W 22 24 1022.1 - 0.0 - - - - - - -
10/09:30am 13.6 W 23 26 1022.2 - 0.0 - - - - - - -
10/09:00am 13.9 W 22 25 1021.8 - 0.2 - - - - - - -
10/08:30am 13.5 W 22 25 1021.7 - 0.2 - - - - - - -
10/08:00am 13.1 W 22 25 1021.4 - 0.2 - - - - - - -
10/07:30am 12.5 WSW 21 24 1021.0 - 0.2 - - - - - - -
10/07:00am 12.4 W 21 26 1020.6 - 0.2 - - - - - - -
10/06:30am 12.2 WSW 22 25 1020.1 - 0.2 - - - - - - -
10/06:00am 12.1 WSW 23 27 1019.7 - 0.2 - - - - - - -
10/05:30am 11.8 WSW 24 28 1019.5 - 0.2 - - - - - - -
10/05:00am 11.9 WSW 23 26 1019.3 - 0.2 - - - - - - -
10/04:30am 11.7 WSW 23 26 1019.2 - 0.2 - - - - - - -
10/04:00am 11.8 WSW 23 27 1018.8 - 0.2 - - - - - - -
10/03:30am 11.6 WSW 23 26 1018.9 - 0.2 - - - - - - -
10/03:00am 11.7 WSW 22 27 1019.1 - 0.2 - - - - - - -
10/02:30am 11.8 WSW 27 30 1018.9 - 0.2 - - - - - - -
10/02:00am 11.9 WSW 25 30 1018.9 - 0.2 - - - - - - -
10/01:30am 11.7 WSW 28 33 1018.7 - 0.2 - - - - - - -
10/01:00am 12.0 WSW 28 34 1019.1 - 0.2 - - - - - - -
10/12:30am 11.9 WSW 30 35 1019.0 - 0.2 - - - - - - -
10/12:00am 12.1 WSW 31 37 1018.8 - 0.2 - - - - - - -
 
Date/Time
EDT
Temp
°C
Wind Pressure Rain since
9am
mm
Weather Cloud Vis
km
Sea
Height
m
Swell
Dir  Spd
kts
Gust
kts
hPa Trend Height
m
Period
s
Dir
09/11:30pm 11.9 WSW 35 40 1018.8 - 0.2 - - - - - - -
09/11:00pm 12.0 WSW 31 37 1019.1 - 0.2 - - - - - - -
09/10:30pm 11.8 WSW 31 37 1019.0 - 0.2 - - - - - - -
09/10:00pm 12.0 WSW 30 36 1018.7 - 0.2 - - - - - - -
09/09:30pm 11.7 WSW 36 41 1017.9 - 0.2 - - - - - - -
09/09:00pm 11.7 WSW 35 40 1017.8 - 0.2 - - - - - - -
09/08:30pm 12.0 WSW 34 40 1017.4 - 0.2 - - - - - - -
09/08:00pm 12.2 WSW 39 45 1016.5 - 0.2 - - - - - - -
09/07:30pm 12.5 WSW 38 45 1016.4 - 0.2 - - - - - - -
09/07:00pm 13.0 WSW 39 46 1016.0 - 0.2 - - - - - - -
09/06:30pm 12.8 WSW 39 46 1015.3 - 0.2 - - - - - - -
09/06:17pm 13.1 WSW 37 47 1015.0 - 0.2 - - - - - - -
09/06:00pm 12.9 WSW 40 46 1014.7 - 0.2 - - - - - - -
09/05:30pm 13.7 W 40 45 1014.5 - 0.2 - - - - - - -
09/05:00pm 12.8 W 42 49 1013.9 - 0.2 - - - - - - -
09/04:30pm 14.1 W 39 46 1014.1 - 0.2 - - - - - - -
09/04:00pm 14.3 WSW 42 50 1013.8 - 0.2 - - - - - - -
09/03:30pm 14.2 WSW 39 47 1013.7 - 0.2 - - - - - - -
09/03:00pm 14.2 WSW 42 48 1013.3 - 0.2 - - - - - - -
09/02:30pm 14.4 W 40 47 1013.1 - 0.2 - - - - - - -
09/02:00pm 14.4 WSW 40 46 1012.9 - 0.2 - - - - - - -
09/01:30pm 14.8 W 39 45 1012.8 - 0.2 - - - - - - -
09/01:00pm 14.5 WSW 40 45 1012.4 - 0.2 - - - - - - -
09/12:30pm 14.3 WSW 37 43 1012.2 - 0.2 - - - - - - -
09/12:00pm 13.0 WSW 33 42 1011.9 - 0.2 - - - - - - -
09/11:30am 13.6 WSW 36 44 1011.9 - 0.2 - - - - - - -
09/11:20am 13.7 WSW 38 48 1011.4 - 0.2 - - - - - - -
09/11:00am 13.4 WSW 37 43 1011.1 - 0.2 - - - - - - -
09/10:30am 13.1 WSW 38 44 1010.5 - 0.2 - - - - - - -
09/10:00am 12.6 WSW 40 45 1010.2 - 0.0 - - - - - - -
09/09:30am 12.4 WSW 38 44 1009.9 - 0.0 - - - - - - -
09/09:00am 12.2 WSW 39 46 1009.0 - 8.8 - - - - - - -
09/08:30am 11.9 WSW 38 43 1008.7 - 8.8 - - - - - - -
09/08:00am 11.6 WSW 35 44 1008.1 - 8.8 - - - - - - -
09/07:51am 11.4 WSW 38 48 1007.9 - 8.8 - - - - - - -
09/07:30am 11.1 WSW 39 47 1007.3 - 8.8 - - - - - - -
09/07:20am 11.1 WSW 38 48 1006.9 - 8.8 - - - - - - -
09/07:00am 10.8 SW 39 48 1006.5 - 8.8 - - - - - - -
09/06:41am 10.6 SW 36 46 1006.3 - 8.8 - - - - - - -
09/06:30am 10.3 SW 39 45 1005.9 - 8.8 - - - - - - -
09/06:00am 9.1 WSW 42 57 1004.8 - 8.8 - - - - - - -
09/05:44am 10.4 WSW 41 51 1004.7 - 8.6 - - - - - - -
09/05:30am 10.9 WSW 43 50 1004.4 - 8.6 - - - - - - -
09/05:00am 10.3 WSW 40 49 1004.0 - 8.6 - - - - - - -
09/04:30am 10.4 WSW 38 48 1003.2 - 8.6 - - - - - - -
09/04:04am 10.7 SW 42 52 1003.1 - 8.6 - - - - - - -
09/04:00am 10.6 WSW 44 52 1003.0 - 8.4 - - - - - - -
09/03:30am 11.0 WSW 44 55 1002.5 - 8.4 - - - - - - -
09/03:09am 11.0 WSW 41 52 1002.1 - 8.4 - - - - - - -
09/03:00am 11.5 WSW 42 51 1001.7 - 8.4 - - - - - - -
09/02:30am 12.2 WSW 44 51 1001.7 - 8.4 - - - - - - -
09/02:00am 12.2 WSW 43 50 1001.5 - 8.4 - - - - - - -
09/01:30am 12.3 W 45 52 1001.0 - 8.4 - - - - - - -
09/01:00am 12.4 W 47 56 1000.8 - 8.4 - - - - - - -
09/12:48am 12.3 W 46 57 1000.4 - 8.4 - - - - - - -
09/12:30am 12.7 W 44 53 1000.5 - 8.4 - - - - - - -
09/12:00am 12.4 W 47 54 999.7 - 8.4 - - - - - - -
 
Date/Time
EDT
Temp
°C
Wind Pressure Rain since
9am
mm
Weather Cloud Vis
km
Sea
Height
m
Swell
Dir  Spd
kts
Gust
kts
hPa Trend Height
m
Period
s
Dir
08/11:30pm 12.5 W 49 58 999.5 - 8.4 - - - - - - -
08/11:05pm 12.1 W 43 53 999.8 - 8.4 - - - - - - -
08/11:00pm 11.8 W 44 52 999.8 - 8.4 - - - - - - -
08/10:30pm 12.6 W 51 58 998.8 - 8.4 - - - - - - -
08/10:00pm 12.8 W 50 61 998.2 - 8.4 - - - - - - -
08/09:30pm 12.9 W 50 60 997.7 - 8.4 - - - - - - -
08/09:05pm 12.7 W 43 54 997.6 - 8.4 - - - - - - -
08/09:00pm 12.9 W 42 51 997.6 - 8.4 - - - - - - -
08/08:40pm 13.0 W 45 56 997.2 - 8.4 - - - - - - -
08/08:30pm 13.4 W 47 55 997.2 - 8.4 - - - - - - -
08/08:16pm 12.8 W 42 53 996.8 - 8.4 - - - - - - -
08/08:00pm 12.8 W 45 51 996.6 - 8.4 - - - - - - -
08/07:30pm 14.3 W 48 56 995.4 - 8.2 - - - - - - -
08/07:23pm 14.4 W 46 56 995.3 - 8.2 - - - - - - -
08/07:00pm 14.6 W 47 56 995.1 - 8.2 - - - - - - -
08/06:33pm 14.8 W 47 57 995.0 - 8.2 - - - - - - -
08/06:30pm 15.0 W 48 57 995.0 - 8.2 - - - - - - -
08/06:00pm 15.3 W 48 59 993.9 - 8.2 - - - - - - -
08/05:30pm 15.6 W 47 58 994.2 - 8.0 - - - - - - -
08/05:02pm 15.8 W 43 53 994.6 - 8.0 - - - - - - -
08/05:00pm 16.2 W 42 49 994.9 - 8.0 - - - - - - -
08/04:32pm 16.0 W 38 49 994.7 - 8.0 - - - - - - -
08/04:30pm 16.2 W 37 46 994.8 - 8.0 - - - - - - -
08/04:06pm 17.0 W 34 45 994.5 - 8.0 - - - - - - -
08/04:00pm 17.1 W 31 37 995.0 - 8.0 - - - - - - -
08/03:54pm 16.9 W 30 34 995.1 - 8.0 - - - - - - -
08/03:30pm 16.5 WNW 18 23 995.6 - 8.0 - - - - - - -

Other Formats:

Comma delimited format used in spreadsheet applications
http://www.bom.gov.au/fwo/IDT60701/IDT60701.94949.axf

JavaScript Object Notation format (JSON) in row-major order
http://www.bom.gov.au/fwo/IDT60701/IDT60701.94949.json